アティラウ の空港の天気 - METARとTAF

Atyrau Airport ( UATG / GUW ) - カザフスタン Atyrau
飛行場実況気象(Metar)
観測時間05/25 15:00 +05 (05/25 10:00 UTC)
風向・風速東北東 6m/s
視程10km以上
天気現象
全天の8割程度の雲 雲底高度 1010m
気温19℃
湿度43%
気圧1016hPa
METARUATG 251000Z 06006MPS 9999 BKN033CB 19/06 Q1016 R32/CLRD70 NOSIG RMK QFE764/1019
過去の天気等 Google飛行場航空写真 Wunderground天気予報

過去48時間のMETAR

飛行場予報(TAF)
発表時間: 5/25 10:01 +05 (5/25 05:01 UTC)
予報対象時間: 25日11時 +05 ~ 26日11時 +05
風向・風速北東 10m/s
視程10km以上
天気現象弱いしゅう雨
全天の8割程度の積乱雲 雲底高度 910m
25日17時 +05 ~ 25日23時 +05 に一時的に
風向・風速不定 13m/s
視程3,000m
天気現象弱い雷雨 スコール
全天の8割程度の積乱雲 雲底高度 610m
25日23時 +05 ~ 26日1時 +05 に徐々に
風向・風速北北東 5m/s
TAF UATG 250501Z 2506/2606 04010MPS 9999 -SHRA BKN030CB TX21/2511Z TN12/2601Z
TEMPO 2512/2518 VRB13MPS 3000 -TSRA SQ BKN020CB
BECMG 2518/2520 02005MPS